SWA3463 KBWI-KORF
Flight info
| Callsign | SWA3463 |
|---|---|
| Flight time | 0h 32m |
| Altitude | 22000 |
| Route | CONLE5 COLIN OUTLA1 |
| Aircraft | B738/M-SADE2E3GIJ4RWZ/LB1D1 |
Departure
| Time | 2026-05-05 13:42 |
|---|---|
| Airport | Baltimore/Washington International Thurgood Marshall Airport (KBWI) |
Arrival
| Time | 2026-05-05 14:14 |
|---|---|
| Airport | Norfolk International Airport (KORF) |
| Time | Latitude | Longitude | Altitude | Speed | Heading |
|---|---|---|---|---|---|
| 2026-05-05 13:08 | 39.17615 | -76.66866 | 155 ft | 0 kts | 314° |
| 2026-05-05 13:34 | 39.17604 | -76.66850 | 155 ft | 4 kts | 303° |
| 2026-05-05 13:34 | 39.17593 | -76.66819 | 155 ft | 4 kts | 275° |
| 2026-05-05 13:34 | 39.17596 | -76.66788 | 155 ft | 4 kts | 229° |
| 2026-05-05 13:35 | 39.17609 | -76.66777 | 155 ft | 0 kts | 184° |
| 2026-05-05 13:38 | 39.17607 | -76.66777 | 155 ft | 2 kts | 184° |
| 2026-05-05 13:38 | 39.17575 | -76.66780 | 155 ft | 8 kts | 182° |
| 2026-05-05 13:39 | 39.17526 | -76.66718 | 154 ft | 15 kts | 97° |
| 2026-05-05 13:39 | 39.17528 | -76.66572 | 153 ft | 14 kts | 61° |
| 2026-05-05 13:39 | 39.17569 | -76.66467 | 152 ft | 15 kts | 110° |
| 2026-05-05 13:39 | 39.17516 | -76.66355 | 150 ft | 16 kts | 123° |
| 2026-05-05 13:40 | 39.17461 | -76.66223 | 148 ft | 17 kts | 104° |
| 2026-05-05 13:40 | 39.17450 | -76.66077 | 147 ft | 16 kts | 94° |
| 2026-05-05 13:40 | 39.17441 | -76.65926 | 145 ft | 18 kts | 94° |
| 2026-05-05 13:40 | 39.17432 | -76.65764 | 141 ft | 19 kts | 94° |
| 2026-05-05 13:41 | 39.17423 | -76.65593 | 142 ft | 19 kts | 95° |
| 2026-05-05 13:41 | 39.17367 | -76.65519 | 141 ft | 11 kts | 176° |
| 2026-05-05 13:41 | 39.17290 | -76.65539 | 140 ft | 9 kts | 218° |
| 2026-05-05 13:41 | 39.17282 | -76.65610 | 140 ft | 10 kts | 272° |
| 2026-05-05 13:42 | 39.17302 | -76.65976 | 144 ft | 82 kts | 274° |
| 2026-05-05 13:42 | 39.17369 | -76.67050 | 180 ft | 152 kts | 272° |
| 2026-05-05 13:42 | 39.17465 | -76.68416 | 1067 ft | 150 kts | 272° |
| 2026-05-05 13:42 | 39.17548 | -76.69722 | 1999 ft | 153 kts | 272° |
| 2026-05-05 13:43 | 39.17631 | -76.71237 | 2334 ft | 186 kts | 273° |
| 2026-05-05 13:43 | 39.17707 | -76.73012 | 2555 ft | 212 kts | 265° |
| 2026-05-05 13:43 | 39.17202 | -76.74878 | 2806 ft | 238 kts | 234° |
| 2026-05-05 13:43 | 39.15842 | -76.76211 | 3417 ft | 257 kts | 206° |
| 2026-05-05 13:44 | 39.14056 | -76.76538 | 4301 ft | 268 kts | 176° |
| 2026-05-05 13:44 | 39.12301 | -76.75643 | 5174 ft | 280 kts | 146° |
| 2026-05-05 13:44 | 39.10875 | -76.73923 | 6261 ft | 281 kts | 138° |
| 2026-05-05 13:44 | 39.09486 | -76.72138 | 6824 ft | 281 kts | 139° |
| 2026-05-05 13:45 | 39.08080 | -76.70389 | 7041 ft | 284 kts | 141° |
| 2026-05-05 13:45 | 39.06627 | -76.68632 | 7037 ft | 287 kts | 141° |
| 2026-05-05 13:45 | 39.05167 | -76.66887 | 7036 ft | 285 kts | 141° |
| 2026-05-05 13:45 | 39.03720 | -76.65148 | 7043 ft | 286 kts | 139° |
| 2026-05-05 13:46 | 39.02378 | -76.63215 | 7427 ft | 292 kts | 135° |
| 2026-05-05 13:46 | 39.01078 | -76.61204 | 8588 ft | 291 kts | 136° |
| 2026-05-05 13:46 | 38.99785 | -76.59205 | 9770 ft | 291 kts | 137° |
| 2026-05-05 13:46 | 38.98462 | -76.57188 | 10630 ft | 302 kts | 137° |
| 2026-05-05 13:47 | 38.97028 | -76.55041 | 10923 ft | 333 kts | 137° |
| 2026-05-05 13:47 | 38.95469 | -76.52717 | 11167 ft | 360 kts | 136° |
| 2026-05-05 13:47 | 38.93585 | -76.50517 | 11786 ft | 361 kts | 156° |
| 2026-05-05 13:47 | 38.91266 | -76.49588 | 12619 ft | 352 kts | 179° |
| 2026-05-05 13:48 | 38.88827 | -76.49567 | 13482 ft | 351 kts | 191° |
| 2026-05-05 13:48 | 38.86432 | -76.50123 | 13914 ft | 351 kts | 197° |
| 2026-05-05 13:48 | 38.84061 | -76.50885 | 13992 ft | 350 kts | 202° |
| 2026-05-05 13:48 | 38.81793 | -76.51991 | 14011 ft | 348 kts | 206° |
| 2026-05-05 13:49 | 38.79550 | -76.53170 | 14000 ft | 347 kts | 206° |
| 2026-05-05 13:49 | 38.77308 | -76.54338 | 14007 ft | 348 kts | 206° |
| 2026-05-05 13:49 | 38.75054 | -76.55481 | 14011 ft | 349 kts | 205° |
| 2026-05-05 13:49 | 38.72788 | -76.56605 | 14010 ft | 349 kts | 205° |
| 2026-05-05 13:50 | 38.70518 | -76.57721 | 14026 ft | 350 kts | 205° |
| 2026-05-05 13:50 | 38.68232 | -76.58833 | 14050 ft | 354 kts | 204° |
| 2026-05-05 13:50 | 38.65934 | -76.59906 | 14719 ft | 358 kts | 204° |
| 2026-05-05 13:50 | 38.63588 | -76.60984 | 15647 ft | 359 kts | 204° |
| 2026-05-05 13:51 | 38.61223 | -76.62069 | 16509 ft | 362 kts | 204° |
| 2026-05-05 13:51 | 38.58830 | -76.63171 | 17249 ft | 369 kts | 204° |
| 2026-05-05 13:51 | 38.56389 | -76.64295 | 17956 ft | 375 kts | 204° |
| 2026-05-05 13:51 | 38.53919 | -76.65435 | 18634 ft | 380 kts | 204° |
| 2026-05-05 13:52 | 38.51415 | -76.66588 | 19375 ft | 382 kts | 204° |
| 2026-05-05 13:52 | 38.48901 | -76.67746 | 20029 ft | 387 kts | 204° |
| 2026-05-05 13:52 | 38.46339 | -76.68928 | 20569 ft | 395 kts | 204° |
| 2026-05-05 13:52 | 38.43730 | -76.70129 | 21164 ft | 400 kts | 204° |
| 2026-05-05 13:53 | 38.41033 | -76.71138 | 21763 ft | 411 kts | 192° |
| 2026-05-05 13:53 | 38.38163 | -76.71138 | 22000 ft | 427 kts | 178° |
| 2026-05-05 13:53 | 38.35160 | -76.70634 | 22012 ft | 439 kts | 176° |
| 2026-05-05 13:53 | 38.32113 | -76.70077 | 22012 ft | 443 kts | 176° |
| 2026-05-05 13:54 | 38.29068 | -76.69524 | 21996 ft | 439 kts | 176° |
| 2026-05-05 13:54 | 38.26047 | -76.68999 | 22004 ft | 436 kts | 176° |
| 2026-05-05 13:54 | 38.23040 | -76.68498 | 22011 ft | 435 kts | 177° |
| 2026-05-05 13:54 | 38.20043 | -76.68013 | 22016 ft | 435 kts | 177° |
| 2026-05-05 13:55 | 38.17038 | -76.67532 | 22020 ft | 436 kts | 177° |
| 2026-05-05 13:55 | 38.14016 | -76.67047 | 22022 ft | 437 kts | 177° |
| 2026-05-05 13:55 | 38.10998 | -76.66562 | 22004 ft | 438 kts | 177° |
| 2026-05-05 13:55 | 38.07961 | -76.66299 | 22016 ft | 434 kts | 185° |
| 2026-05-05 13:56 | 38.04946 | -76.66489 | 22024 ft | 433 kts | 188° |
| 2026-05-05 13:56 | 38.01998 | -76.66818 | 22011 ft | 426 kts | 189° |
| 2026-05-05 13:56 | 37.99089 | -76.67136 | 21635 ft | 414 kts | 189° |
| 2026-05-05 13:56 | 37.96248 | -76.67401 | 21137 ft | 407 kts | 188° |
| 2026-05-05 13:57 | 37.93449 | -76.67622 | 20604 ft | 400 kts | 188° |
| 2026-05-05 13:57 | 37.90690 | -76.67822 | 20043 ft | 394 kts | 188° |
| 2026-05-05 13:57 | 37.87962 | -76.67936 | 19487 ft | 394 kts | 181° |
| 2026-05-05 13:57 | 37.85274 | -76.67086 | 18939 ft | 404 kts | 160° |
| 2026-05-05 13:58 | 37.82888 | -76.65164 | 18407 ft | 412 kts | 141° |
| 2026-05-05 13:58 | 37.80912 | -76.62534 | 17813 ft | 412 kts | 136° |
| 2026-05-05 13:58 | 37.79017 | -76.59841 | 17203 ft | 409 kts | 135° |
| 2026-05-05 13:58 | 37.77139 | -76.57184 | 16637 ft | 403 kts | 136° |
| 2026-05-05 13:59 | 37.73392 | -76.52024 | 15489 ft | 393 kts | 137° |
| 2026-05-05 13:59 | 37.71542 | -76.49507 | 14936 ft | 389 kts | 137° |
| 2026-05-05 14:00 | 37.67927 | -76.44591 | 13899 ft | 380 kts | 137° |
| 2026-05-05 14:00 | 37.66717 | -76.42945 | 13507 ft | 377 kts | 137° |
| 2026-05-05 14:00 | 37.64367 | -76.39752 | 12769 ft | 371 kts | 137° |
| 2026-05-05 14:00 | 37.62615 | -76.37373 | 12244 ft | 367 kts | 137° |
| 2026-05-05 14:01 | 37.60877 | -76.35015 | 11729 ft | 367 kts | 137° |
| 2026-05-05 14:01 | 37.59137 | -76.32657 | 11212 ft | 368 kts | 137° |
| 2026-05-05 14:01 | 37.57400 | -76.30310 | 10843 ft | 360 kts | 137° |
| 2026-05-05 14:01 | 37.55747 | -76.28085 | 10705 ft | 345 kts | 137° |
| 2026-05-05 14:02 | 37.54135 | -76.25920 | 10555 ft | 332 kts | 137° |
| 2026-05-05 14:02 | 37.52561 | -76.23809 | 10415 ft | 321 kts | 138° |
| 2026-05-05 14:02 | 37.51059 | -76.21798 | 10282 ft | 310 kts | 138° |
| 2026-05-05 14:02 | 37.49622 | -76.19875 | 10161 ft | 301 kts | 138° |
| 2026-05-05 14:03 | 37.48207 | -76.17984 | 10036 ft | 292 kts | 138° |
| 2026-05-05 14:03 | 37.46834 | -76.16148 | 9831 ft | 286 kts | 138° |
| 2026-05-05 14:03 | 37.45469 | -76.14328 | 9540 ft | 284 kts | 138° |
| 2026-05-05 14:03 | 37.44115 | -76.12527 | 9278 ft | 281 kts | 138° |
| 2026-05-05 14:04 | 37.42776 | -76.10738 | 8991 ft | 279 kts | 138° |
| 2026-05-05 14:04 | 37.41450 | -76.08968 | 8715 ft | 277 kts | 138° |
| 2026-05-05 14:04 | 37.40133 | -76.07211 | 8430 ft | 275 kts | 138° |
| 2026-05-05 14:04 | 37.38781 | -76.05519 | 8146 ft | 270 kts | 148° |
| 2026-05-05 14:05 | 37.37110 | -76.04592 | 7775 ft | 261 kts | 175° |
| 2026-05-05 14:05 | 37.35307 | -76.04435 | 7391 ft | 260 kts | 182° |
| 2026-05-05 14:05 | 37.33525 | -76.04421 | 7069 ft | 259 kts | 184° |
| 2026-05-05 14:05 | 37.31728 | -76.04424 | 6765 ft | 258 kts | 184° |
| 2026-05-05 14:06 | 37.29940 | -76.04433 | 6473 ft | 256 kts | 184° |
| 2026-05-05 14:06 | 37.28163 | -76.04444 | 6168 ft | 255 kts | 184° |
| 2026-05-05 14:06 | 37.26396 | -76.04455 | 5866 ft | 253 kts | 184° |
| 2026-05-05 14:06 | 37.24640 | -76.04465 | 5580 ft | 251 kts | 184° |
| 2026-05-05 14:07 | 37.22902 | -76.04468 | 5327 ft | 248 kts | 184° |
| 2026-05-05 14:07 | 37.21184 | -76.04472 | 5083 ft | 246 kts | 184° |
| 2026-05-05 14:07 | 37.19496 | -76.04600 | 4826 ft | 241 kts | 193° |
| 2026-05-05 14:07 | 37.17864 | -76.04990 | 4603 ft | 237 kts | 194° |
| 2026-05-05 14:08 | 37.16267 | -76.05362 | 4362 ft | 235 kts | 194° |
| 2026-05-05 14:08 | 37.14659 | -76.05724 | 4110 ft | 234 kts | 194° |
| 2026-05-05 14:08 | 37.13053 | -76.06075 | 3861 ft | 232 kts | 194° |
| 2026-05-05 14:08 | 37.11461 | -76.06424 | 3603 ft | 231 kts | 194° |
| 2026-05-05 14:09 | 37.09879 | -76.06765 | 3378 ft | 230 kts | 194° |
| 2026-05-05 14:09 | 37.08315 | -76.07162 | 3124 ft | 228 kts | 198° |
| 2026-05-05 14:09 | 37.06776 | -76.07642 | 2877 ft | 227 kts | 199° |
| 2026-05-05 14:09 | 37.05263 | -76.08121 | 2661 ft | 221 kts | 199° |
| 2026-05-05 14:10 | 37.03817 | -76.08568 | 2432 ft | 212 kts | 198° |
| 2026-05-05 14:10 | 37.02430 | -76.09000 | 2166 ft | 198 kts | 199° |
| 2026-05-05 14:10 | 37.01134 | -76.09379 | 1900 ft | 184 kts | 200° |
| 2026-05-05 14:10 | 37.00016 | -76.09937 | 1680 ft | 165 kts | 216° |
| 2026-05-05 14:11 | 36.99083 | -76.10688 | 1482 ft | 153 kts | 217° |
| 2026-05-05 14:11 | 36.98519 | -76.11181 | 1411 ft | 146 kts | 219° |
| 2026-05-05 14:11 | 36.97733 | -76.11924 | 1394 ft | 139 kts | 220° |
| 2026-05-05 14:11 | 36.96976 | -76.12658 | 1362 ft | 134 kts | 223° |
| 2026-05-05 14:12 | 36.96276 | -76.13381 | 1241 ft | 127 kts | 223° |
| 2026-05-05 14:12 | 36.95604 | -76.14081 | 1061 ft | 126 kts | 222° |
| 2026-05-05 14:12 | 36.94902 | -76.14752 | 967 ft | 130 kts | 217° |
| 2026-05-05 14:12 | 36.94156 | -76.15443 | 839 ft | 138 kts | 219° |
| 2026-05-05 14:13 | 36.93404 | -76.16196 | 674 ft | 138 kts | 218° |
| 2026-05-05 14:13 | 36.92659 | -76.16917 | 523 ft | 134 kts | 216° |
| 2026-05-05 14:13 | 36.91919 | -76.17595 | 348 ft | 131 kts | 219° |
| 2026-05-05 14:13 | 36.91201 | -76.18307 | 182 ft | 132 kts | 218° |
| 2026-05-05 14:14 | 36.90481 | -76.19002 | 21 ft | 131 kts | 217° |
| 2026-05-05 14:14 | 36.89849 | -76.19608 | 3 ft | 87 kts | 218° |
| 2026-05-05 14:14 | 36.89517 | -76.19928 | 7 ft | 44 kts | 218° |
| 2026-05-05 14:14 | 36.89429 | -76.20081 | 7 ft | 17 kts | 278° |
| 2026-05-05 14:15 | 36.89480 | -76.20172 | 3 ft | 10 kts | 2° |
| 2026-05-05 14:15 | 36.89543 | -76.20126 | 4 ft | 13 kts | 37° |
| 2026-05-05 14:15 | 36.89627 | -76.20043 | 3 ft | 18 kts | 38° |
| 2026-05-05 14:15 | 36.89745 | -76.19930 | 3 ft | 24 kts | 37° |
| 2026-05-05 14:16 | 36.89876 | -76.19803 | 2 ft | 17 kts | 36° |
| 2026-05-05 14:16 | 36.89938 | -76.19812 | 2 ft | 8 kts | 310° |
| 2026-05-05 14:16 | 36.89972 | -76.19866 | 3 ft | 9 kts | 302° |
| 2026-05-05 14:16 | 36.89999 | -76.19959 | 2 ft | 15 kts | 283° |
| 2026-05-05 14:17 | 36.90006 | -76.20109 | 2 ft | 15 kts | 268° |
| 2026-05-05 14:17 | 36.90005 | -76.20200 | 2 ft | 7 kts | 239° |
| 2026-05-05 14:17 | 36.89976 | -76.20214 | 2 ft | 2 kts | 193° |
| 2026-05-05 14:17 | 36.89964 | -76.20217 | 2 ft | 0 kts | 193° |